Parisot

FR-0978 · Tarn, Occitanie, 法国

使用的METAR站距离机场42 km。
罗盘
风向 的 风向 350°
风: 8 kt, 3 beaufort

添加一条跑道以查看侧风和逆风信息。

添置 跑道
0 ft 1.000 2.000 3.000 4.000 5.000
Cloud Cloud
FEW 1.400
Cloud Cloud Cloud Cloud Cloud Cloud
BKN 2.500
Cloud Cloud Cloud Cloud Cloud Cloud
BKN 3.600
METAR LFBO 201400Z AUTO 35008KT 2800 RA BR FEW014/// BKN025/// BKN036/// ///CB 17/16 Q1016 TEMPO 4000 RA BKN009 FEW040CB BECMG 28010KT

METAR Parisot - FR-0978

Parisot是,法国中的超轻型飞机场。 该机场位于纬度43,80170和经度1,83470。 这个机场没有ICAO代码,我们使用FR-0978作为参考。 机场在Bordeaux FIR中。

该航空气象观测是针对Toulouse-Blagnac Airport在2024年6月20日 16:00, 当地时间进行的。

机场观察

风向为350°,速度为8 kt。

可见度为2,8 km。

有几云在1.400 ft的高度, 碎云在2.500 ft的高度 和 碎云在3.600 ft的高度。 破损或更高的上限为2.500 ft。

当前天气为雨, 薄雾。 温度和风寒是17 °C。 露点为16 °C,相对湿度为94%。 海平面上的气压为1016 hPa (QNH)。

发展趋势

  • 暂时的

    可变方向的风很小或没有。 可见性变为4 km。 重大天气:雨。 碎云在900 ft的高度 和 几云 积雨云在4.000 ft的高度.

  • 变得

    风来自280°方向,速度为10 kt。

白天

今天,太阳从06:10升起,在21:38降落。 这适用于Parisot,世界夏令时可能有所不同。 当地时间与世界标准时间之间的时差为+2 小时。 夏令时目前正在进行中。

公司介绍

我们没有关于这个机场的公司信息。

体会

到Vliegles.nl去找飞行课程,跳伞和其他飞行体验。 浏览页面,了解Parisot附近所有可用的活动。 你也可以使用搜索功能来寻找你所在地附近的特定飞行课程、跳伞或其他飞行体验。

乌云

1.400 ft FEW 几云
2.500 ft BKN 碎云
3.600 ft BKN 碎云
900 ft BKN 暂时的 碎云
4.000 ft FEW 暂时的 几云 积雨云

温度 & 天气

天气
薄雾
温度 17 °C
露点 16 °C
相对湿度 94%
Kp-index 1 (0-9)

白天

日出
06:13
中午
13:56
日落
21:39 (5:04)

小工具

你想在你的网站上有一个关于Parisot的当前航空天气(METAR)的小部件吗?

显示HTML代码
报告变更